Time;durP1;ratioP1;P1;durP2;ratioP2;P2;SDS_P1;SDS_P2;PMS_P1;PMS_P2;Temp;Humidity;BMP_temperature;BMP_pressure;BME280_temperature;BME280_humidity;BME280_pressure;Samples;Min_cycle;Max_cycle;Signal;HPM_P1;HPM_P2
2021/04/23 00:02:12;;;;;;;4.35;0.80;;;2.90;99.90;;;;;;5019176;28;20047;-76
2021/04/23 00:04:38;;;;;;;6.28;0.70;;;2.80;99.90;;;;;;5002756;28;20037;-76
2021/04/23 00:07:04;;;;;;;6.60;0.82;;;2.80;99.90;;;;;;4970085;28;20408;-77
2021/04/23 00:09:32;;;;;;;8.20;0.88;;;2.80;99.90;;;;;;5019039;28;20034;-76
2021/04/23 00:12:06;;;;;;;5.47;1.08;;;2.70;99.90;;;;;;4986620;28;20031;-76
2021/04/23 00:14:58;;;;;;;4.65;1.02;;;2.50;99.90;;;;;;4970220;28;20034;-77
2021/04/23 00:17:23;;;;;;;4.38;1.00;;;2.40;99.90;;;;;;4985283;28;20063;-76
2021/04/23 00:19:49;;;;;;;5.60;1.38;;;2.40;99.90;;;;;;4969992;28;20035;-76
2021/04/23 00:22:15;;;;;;;4.55;0.90;;;2.40;99.90;;;;;;5018814;28;20503;-76
2021/04/23 00:24:41;;;;;;;6.53;0.90;;;2.40;99.90;;;;;;5018837;28;20026;-76
2021/04/23 00:27:07;;;;;;;5.55;1.17;;;2.40;99.90;;;;;;5002405;28;20027;-76
2021/04/23 00:29:34;;;;;;;3.97;0.95;;;2.40;99.90;;;;;;4987121;28;20119;-76
2021/04/23 00:32:02;;;;;;;4.53;1.17;;;2.30;99.90;;;;;;4987402;28;20026;-76
2021/04/23 00:34:27;;;;;;;3.22;1.00;;;2.30;99.90;;;;;;4998939;28;20038;-79
2021/04/23 00:36:53;;;;;;;4.43;1.02;;;2.20;99.90;;;;;;4982557;28;20039;-78
2021/04/23 00:39:19;;;;;;;6.38;1.20;;;2.20;99.90;;;;;;4998694;28;20041;-76
2021/04/23 00:41:44;;;;;;;3.50;0.70;;;2.10;99.90;;;;;;4982545;28;20455;-76
2021/04/23 00:44:10;;;;;;;4.45;0.88;;;2.10;99.90;;;;;;5001525;28;20031;-76
2021/04/23 00:46:37;;;;;;;5.30;0.93;;;2.10;99.90;;;;;;5018441;28;20030;-78
2021/04/23 00:49:04;;;;;;;5.50;0.88;;;2.10;99.90;;;;;;4987036;28;20037;-76
2021/04/23 00:51:43;;;;;;;6.47;0.90;;;2.10;99.90;;;;;;5018363;28;20046;-77
2021/04/23 00:54:11;;;;;;;5.60;1.10;;;2.10;99.90;;;;;;5018071;28;20066;-76
2021/04/23 00:56:39;;;;;;;4.78;0.95;;;1.90;99.90;;;;;;5001902;28;20031;-76
2021/04/23 00:59:09;;;;;;;5.38;1.60;;;1.80;99.90;;;;;;5018195;28;20038;-76
2021/04/23 01:01:41;;;;;;;4.20;0.90;;;1.80;99.90;;;;;;5001688;28;20043;-76
2021/04/23 01:04:13;;;;;;;5.40;1.08;;;1.80;99.90;;;;;;4986801;28;20023;-76
2021/04/23 01:06:40;;;;;;;7.78;1.08;;;1.80;99.90;;;;;;5017817;28;20055;-76
2021/04/23 01:09:19;;;;;;;5.72;0.90;;;1.70;99.90;;;;;;5001555;28;20033;-76
2021/04/23 01:11:46;;;;;;;5.93;1.08;;;1.70;99.90;;;;;;5018083;28;20023;-76
2021/04/23 01:14:12;;;;;;;5.70;1.00;;;1.70;99.90;;;;;;4986731;28;20094;-76
2021/04/23 01:16:39;;;;;;;3.70;1.02;;;1.70;99.90;;;;;;4986671;28;20034;-76
2021/04/23 01:19:07;;;;;;;5.10;0.90;;;1.60;99.90;;;;;;5001693;28;20038;-76
2021/04/23 01:21:35;;;;;;;4.25;0.80;;;1.60;99.90;;;;;;5017807;28;20121;-77
2021/04/23 01:24:03;;;;;;;6.10;1.67;;;1.60;99.90;;;;;;4969178;28;20090;-76
2021/04/23 01:26:32;;;;;;;6.97;1.02;;;1.60;99.90;;;;;;4986435;28;20039;-76
2021/04/23 01:28:59;;;;;;;4.85;0.95;;;1.60;99.90;;;;;;5001481;28;20097;-76
2021/04/23 01:31:29;;;;;;;5.75;0.93;;;1.60;99.90;;;;;;4986296;28;20034;-76
2021/04/23 01:34:02;;;;;;;3.67;0.85;;;1.50;99.90;;;;;;4996928;28;20480;-76
2021/04/23 01:36:28;;;;;;;5.45;1.13;;;1.40;99.90;;;;;;4986278;28;20117;-79
2021/04/23 01:38:54;;;;;;;4.32;0.82;;;1.40;99.90;;;;;;4985084;28;20399;-78
2021/04/23 01:41:21;;;;;;;4.22;0.88;;;1.40;99.90;;;;;;4987441;28;20058;-78
2021/04/23 01:43:49;;;;;;;6.78;1.10;;;1.40;99.90;;;;;;4990279;28;20031;-78
2021/04/23 01:46:15;;;;;;;7.78;1.30;;;1.40;99.90;;;;;;5005074;28;20031;-76
2021/04/23 01:48:41;;;;;;;3.05;0.80;;;1.40;99.90;;;;;;4990214;28;20522;-76
2021/04/23 01:51:10;;;;;;;5.90;1.33;;;1.40;99.90;;;;;;4989964;28;20034;-76
2021/04/23 01:53:37;;;;;;;5.25;0.80;;;1.40;99.90;;;;;;4990214;28;20571;-79
2021/04/23 01:56:04;;;;;;;4.22;0.80;;;1.30;99.90;;;;;;4988616;28;20081;-79
2021/04/23 01:58:31;;;;;;;5.60;0.93;;;1.30;99.90;;;;;;4989998;28;20039;-78
2021/04/23 02:00:57;;;;;;;7.85;1.75;;;1.30;99.90;;;;;;4989683;28;20043;-76
2021/04/23 02:03:24;;;;;;;7.18;1.30;;;1.30;99.90;;;;;;4989968;28;20098;-76
2021/04/23 02:05:54;;;;;;;4.15;0.95;;;1.20;99.90;;;;;;5004775;28;20555;-76
2021/04/23 02:08:23;;;;;;;2.58;0.65;;;1.20;99.90;;;;;;5008982;28;20046;-77
2021/04/23 02:11:11;;;;;;;4.30;0.90;;;1.20;99.90;;;;;;5009155;28;20044;-76
2021/04/23 02:13:40;;;;;;;3.80;0.93;;;1.20;99.90;;;;;;5008134;28;20034;-76
2021/04/23 02:16:07;;;;;;;5.78;0.90;;;1.10;99.90;;;;;;5024317;28;20045;-76
2021/04/23 02:18:34;;;;;;;6.50;0.90;;;1.10;99.90;;;;;;4991915;28;20030;-76
2021/04/23 02:21:00;;;;;;;6.70;1.25;;;1.10;99.90;;;;;;5009132;28;20042;-76
2021/04/23 02:23:26;;;;;;;6.43;0.98;;;1.10;99.90;;;;;;5024290;28;20072;-76
2021/04/23 02:25:53;;;;;;;3.53;0.90;;;1.00;99.90;;;;;;4991414;28;20038;-76
2021/04/23 02:28:20;;;;;;;4.32;0.90;;;1.00;99.90;;;;;;5024217;28;20035;-76
2021/04/23 02:30:57;;;;;;;5.07;0.90;;;1.00;99.90;;;;;;5009161;28;20023;-76
2021/04/23 02:33:24;;;;;;;5.15;1.25;;;1.10;99.90;;;;;;5024002;28;20085;-76
2021/04/23 02:35:52;;;;;;;2.72;0.82;;;1.00;99.90;;;;;;4991112;28;20034;-76
2021/04/23 02:38:19;;;;;;;6.38;1.00;;;0.90;99.90;;;;;;5008992;28;20033;-76
2021/04/23 02:40:46;;;;;;;8.30;1.65;;;1.00;99.90;;;;;;4990784;28;20042;-76
2021/04/23 02:43:15;;;;;;;4.47;0.77;;;0.90;99.90;;;;;;4991289;28;20038;-76
2021/04/23 02:45:42;;;;;;;8.35;1.00;;;0.90;99.90;;;;;;4991335;28;20061;-76
2021/04/23 02:48:09;;;;;;;6.25;1.08;;;0.90;99.90;;;;;;5008740;28;20038;-76
2021/04/23 02:50:36;;;;;;;2.58;0.75;;;0.80;99.90;;;;;;5008511;28;20058;-76
2021/04/23 02:53:05;;;;;;;4.28;1.08;;;0.80;99.90;;;;;;5006098;28;20102;-76
2021/04/23 02:55:30;;;;;;;3.80;0.80;;;0.80;99.90;;;;;;5008534;28;20448;-75
2021/04/23 02:58:04;;;;;;;3.75;0.70;;;0.70;99.90;;;;;;5008524;28;20034;-76
2021/04/23 03:00:33;;;;;;;5.70;0.90;;;0.70;99.90;;;;;;5007002;28;20042;-76
2021/04/23 03:02:59;;;;;;;5.13;1.02;;;0.70;99.90;;;;;;5008511;28;20498;-76
2021/04/23 03:05:46;;;;;;;3.90;0.65;;;0.80;99.90;;;;;;5006957;28;20040;-76
2021/04/23 03:08:12;;;;;;;4.40;0.75;;;0.70;99.90;;;;;;4969896;28;20061;-76
2021/04/23 03:10:42;;;;;;;4.55;1.20;;;0.70;99.90;;;;;;4986271;28;20039;-76
2021/04/23 03:13:14;;;;;;;3.75;0.85;;;0.60;99.90;;;;;;4970166;28;20586;-76
2021/04/23 03:15:41;;;;;;;4.18;0.90;;;0.60;99.90;;;;;;4970230;28;20042;-76
2021/04/23 03:18:10;;;;;;;4.30;0.65;;;0.60;99.90;;;;;;4970095;28;20427;-76
2021/04/23 03:20:36;;;;;;;4.50;0.77;;;0.60;99.90;;;;;;4969713;28;20066;-76
2021/04/23 03:23:02;;;;;;;4.78;1.08;;;0.60;99.90;;;;;;4970052;28;20045;-76
2021/04/23 03:25:31;;;;;;;4.40;0.90;;;0.50;99.90;;;;;;4986209;28;20039;-76
2021/04/23 03:27:57;;;;;;;5.75;1.10;;;0.40;99.90;;;;;;4985950;28;20037;-76
2021/04/23 03:30:28;;;;;;;8.57;1.60;;;0.50;99.90;;;;;;4969366;28;20084;-76
2021/04/23 03:32:54;;;;;;;6.85;1.30;;;0.50;99.90;;;;;;4985883;28;20046;-76
2021/04/23 03:35:20;;;;;;;4.53;1.50;;;0.40;99.90;;;;;;4969467;28;20034;-76
2021/04/23 03:37:46;;;;;;;4.25;1.15;;;0.40;99.90;;;;;;4969571;28;20053;-76
2021/04/23 03:40:15;;;;;;;6.15;1.02;;;0.40;99.90;;;;;;4969449;28;20503;-75
2021/04/23 03:42:40;;;;;;;5.50;1.30;;;0.50;99.90;;;;;;4985499;28;20030;-76
2021/04/23 03:45:09;;;;;;;5.85;1.00;;;0.50;99.90;;;;;;4978587;28;20046;-76
2021/04/23 03:47:34;;;;;;;6.45;1.20;;;0.40;99.90;;;;;;5022432;28;20034;-76
2021/04/23 03:50:00;;;;;;;3.97;1.00;;;0.50;99.90;;;;;;5022491;28;20061;-76
2021/04/23 03:52:27;;;;;;;7.07;1.42;;;0.50;99.90;;;;;;5007333;28;20027;-76
2021/04/23 03:54:52;;;;;;;7.50;1.02;;;0.60;99.90;;;;;;5007449;28;20060;-76
2021/04/23 03:57:18;;;;;;;4.95;1.05;;;0.70;99.90;;;;;;5022193;28;20034;-76
2021/04/23 03:59:44;;;;;;;6.22;1.08;;;0.70;99.90;;;;;;5022393;28;20039;-76
2021/04/23 04:02:09;;;;;;;3.90;1.13;;;0.60;99.90;;;;;;5022038;28;20058;-76
2021/04/23 04:04:35;;;;;;;4.15;0.95;;;0.70;99.90;;;;;;5005542;28;20037;-76
2021/04/23 04:07:01;;;;;;;5.55;1.02;;;0.70;99.90;;;;;;5005628;28;20053;-78
2021/04/23 04:09:26;;;;;;;5.68;1.08;;;0.60;99.90;;;;;;5007092;28;20109;-78
2021/04/23 04:11:52;;;;;;;4.50;0.95;;;0.50;99.90;;;;;;5022090;28;20558;-78
2021/04/23 04:14:18;;;;;;;5.47;0.70;;;0.70;99.90;;;;;;5007352;28;20039;-78
2021/04/23 04:16:43;;;;;;;4.97;0.88;;;0.70;99.90;;;;;;5005769;28;20034;-78
2021/04/23 04:19:09;;;;;;;3.17;0.90;;;0.80;99.90;;;;;;5007017;28;20034;-79
2021/04/23 04:21:34;;;;;;;3.92;0.70;;;0.80;99.90;;;;;;5005540;28;20042;-78
2021/04/23 04:24:00;;;;;;;6.25;0.95;;;0.90;99.90;;;;;;5006979;28;20026;-78
2021/04/23 04:26:26;;;;;;;4.25;0.68;;;0.90;99.90;;;;;;5011137;28;20122;-78
2021/04/23 04:29:12;;;;;;;5.70;0.82;;;0.80;99.90;;;;;;4986081;28;20090;-78
2021/04/23 04:31:38;;;;;;;6.45;0.80;;;0.80;99.90;;;;;;5004415;28;20041;-76
2021/04/23 04:34:03;;;;;;;4.78;1.00;;;0.70;99.90;;;;;;5006228;28;20482;-78
2021/04/23 04:36:29;;;;;;;4.45;0.88;;;0.60;99.90;;;;;;5005662;28;20036;-79
2021/04/23 04:38:55;;;;;;;4.00;1.23;;;0.70;99.90;;;;;;5004811;28;20034;-76
2021/04/23 04:41:20;;;;;;;7.88;0.88;;;0.60;99.90;;;;;;4988432;28;20564;-76
2021/04/23 04:43:46;;;;;;;5.63;0.95;;;0.50;99.90;;;;;;5005872;28;20050;-76
2021/04/23 04:46:12;;;;;;;4.03;0.73;;;0.50;99.90;;;;;;5012046;28;20069;-78
2021/04/23 04:48:38;;;;;;;5.72;0.70;;;0.50;99.90;;;;;;5006010;28;20030;-79
2021/04/23 04:51:06;;;;;;;3.85;1.10;;;0.60;99.90;;;;;;4985782;28;20070;-76
2021/04/23 04:53:32;;;;;;;4.43;0.80;;;0.70;99.90;;;;;;4987960;28;20030;-76
2021/04/23 04:55:59;;;;;;;2.90;0.70;;;0.60;99.90;;;;;;4988248;28;20041;-77
2021/04/23 04:58:30;;;;;;;4.43;0.93;;;0.70;99.90;;;;;;4987949;28;20027;-77
2021/04/23 05:01:00;;;;;;;2.55;0.73;;;0.70;99.90;;;;;;4988017;28;20042;-79
2021/04/23 05:03:26;;;;;;;4.03;0.90;;;0.60;99.90;;;;;;4987996;28;20406;-79
2021/04/23 05:08:45;;;;;;;2.75;0.60;;;0.90;99.90;;;;;;5003884;28;20057;-79
2021/04/23 05:11:11;;;;;;;4.15;1.00;;;0.80;99.90;;;;;;5003634;28;20034;-79
2021/04/23 05:13:37;;;;;;;3.13;0.77;;;0.90;99.90;;;;;;4998157;28;20037;-79
2021/04/23 05:16:03;;;;;;;3.90;0.90;;;0.90;99.90;;;;;;4985596;28;20039;-79
2021/04/23 05:18:29;;;;;;;3.50;0.70;;;0.90;99.90;;;;;;5005332;28;20042;-79
2021/04/23 05:20:55;;;;;;;3.55;0.90;;;1.20;99.90;;;;;;5004041;28;20042;-79
2021/04/23 05:23:21;;;;;;;4.03;0.77;;;1.20;99.90;;;;;;5003937;28;20030;-79
2021/04/23 05:25:46;;;;;;;4.35;1.00;;;1.30;99.90;;;;;;4987825;28;20034;-79
2021/04/23 05:28:12;;;;;;;4.20;0.70;;;1.40;99.90;;;;;;5003855;28;20030;-79
2021/04/23 05:30:39;;;;;;;2.70;0.77;;;1.60;99.90;;;;;;5004486;28;20030;-77
2021/04/23 05:33:07;;;;;;;4.70;0.77;;;1.80;99.90;;;;;;5003929;28;20077;-77
2021/04/23 05:35:33;;;;;;;5.00;0.90;;;1.70;99.90;;;;;;4987594;28;20056;-77
2021/04/23 05:37:59;;;;;;;4.95;0.95;;;2.10;99.90;;;;;;5003982;28;20031;-77
2021/04/23 05:40:36;;;;;;;7.38;0.88;;;2.30;99.90;;;;;;5003910;28;20470;-77
2021/04/23 05:43:05;;;;;;;7.53;0.85;;;2.60;99.90;;;;;;4987475;28;20034;-77
2021/04/23 05:45:31;;;;;;;7.38;0.85;;;2.90;99.90;;;;;;5003600;28;20034;-77
2021/04/23 05:47:56;;;;;;;4.55;0.80;;;3.00;99.90;;;;;;5003687;28;20043;-77
2021/04/23 05:50:22;;;;;;;5.57;0.70;;;3.20;99.90;;;;;;5003894;28;20077;-77
2021/04/23 05:52:49;;;;;;;3.72;0.80;;;3.30;99.90;;;;;;5003624;28;20447;-77
2021/04/23 05:55:17;;;;;;;3.72;0.70;;;3.40;99.90;;;;;;5003924;28;20041;-77
2021/04/23 05:57:43;;;;;;;5.88;0.70;;;3.50;99.90;;;;;;4987268;28;20054;-78
2021/04/23 06:00:11;;;;;;;3.35;0.70;;;3.60;99.90;;;;;;5004705;28;20037;-77
2021/04/23 06:02:40;;;;;;;4.20;1.05;;;3.80;99.90;;;;;;5005060;28;20034;-78
2021/04/23 06:05:08;;;;;;;4.55;1.08;;;4.00;99.90;;;;;;4987271;28;20038;-78
2021/04/23 06:07:36;;;;;;;5.70;0.75;;;4.00;99.90;;;;;;5044722;23;20057;-77
2021/04/23 06:10:06;;;;;;;9.68;1.55;;;4.00;99.90;;;;;;5079745;28;20626;-77
2021/04/23 06:12:31;;;;;;;5.82;0.90;;;4.10;99.90;;;;;;5079878;28;20036;-78
2021/04/23 06:14:57;;;;;;;7.00;0.80;;;4.20;99.90;;;;;;5046559;28;20025;-77
2021/04/23 06:17:23;;;;;;;9.32;1.17;;;4.30;99.90;;;;;;5063270;28;20060;-77
2021/04/23 06:19:48;;;;;;;9.85;1.00;;;4.40;99.90;;;;;;5046821;28;20125;-78
2021/04/23 06:22:14;;;;;;;7.97;0.88;;;4.50;99.90;;;;;;5047689;28;20056;-79
2021/04/23 06:24:40;;;;;;;7.00;1.30;;;4.60;99.90;;;;;;5064492;28;20029;-77
2021/04/23 06:27:06;;;;;;;5.93;1.10;;;4.70;99.90;;;;;;5048739;28;20109;-77
2021/04/23 06:29:33;;;;;;;6.43;1.00;;;4.80;99.90;;;;;;5066570;28;20036;-78
2021/04/23 06:31:59;;;;;;;6.95;0.80;;;4.90;99.90;;;;;;5066640;28;20036;-78
2021/04/23 06:34:24;;;;;;;4.65;0.60;;;5.00;99.90;;;;;;5050012;28;20037;-78
2021/04/23 06:36:50;;;;;;;6.75;0.80;;;5.10;99.90;;;;;;5067792;28;20025;-78
2021/04/23 06:39:18;;;;;;;3.70;0.50;;;5.30;99.90;;;;;;5066627;28;20032;-78
2021/04/23 06:41:46;;;;;;;4.97;1.17;;;5.40;99.90;;;;;;5083390;28;20041;-78
2021/04/23 06:44:13;;;;;;;4.40;0.70;;;5.50;99.90;;;;;;5066640;28;20032;-77
2021/04/23 06:46:38;;;;;;;4.72;0.70;;;5.50;99.90;;;;;;5050015;28;20140;-79
2021/04/23 06:49:04;;;;;;;4.55;0.60;;;5.60;99.90;;;;;;5063452;28;20453;-79
2021/04/23 06:51:30;;;;;;;7.80;0.90;;;5.60;99.90;;;;;;5066538;28;20039;-79
2021/04/23 06:53:56;;;;;;;7.93;0.90;;;5.70;99.90;;;;;;5066302;28;20055;-78
2021/04/23 06:56:21;;;;;;;4.63;0.75;;;5.90;99.90;;;;;;5038690;28;20132;-78
2021/04/23 06:58:47;;;;;;;8.57;0.90;;;5.80;99.90;;;;;;5048459;28;20056;-78
2021/04/23 07:01:14;;;;;;;8.90;1.33;;;5.90;99.90;;;;;;5052311;28;20045;-78
2021/04/23 07:03:43;;;;;;;8.98;1.13;;;5.90;99.90;;;;;;5057061;28;20029;-78
2021/04/23 07:06:09;;;;;;;7.95;0.90;;;6.00;99.90;;;;;;5051955;28;20492;-78
2021/04/23 07:08:36;;;;;;;5.82;0.85;;;6.10;99.90;;;;;;5057487;28;20033;-78
2021/04/23 07:11:02;;;;;;;6.97;0.70;;;6.10;99.90;;;;;;5068638;28;20499;-78
2021/04/23 07:13:28;;;;;;;3.90;0.60;;;6.10;99.90;;;;;;5057559;28;20104;-78
2021/04/23 07:15:53;;;;;;;7.43;1.00;;;6.30;99.90;;;;;;5052125;28;20036;-77
2021/04/23 07:18:19;;;;;;;12.23;1.45;;;6.50;99.90;;;;;;5056381;28;20097;-78
2021/04/23 07:20:45;;;;;;;6.28;1.15;;;6.50;99.90;;;;;;5052617;28;20045;-78
2021/04/23 07:23:10;;;;;;;7.20;0.90;;;6.60;99.90;;;;;;5073191;28;20063;-78
2021/04/23 07:25:37;;;;;;;4.97;0.50;;;6.90;99.90;;;;;;5076118;28;20037;-78
2021/04/23 07:28:03;;;;;;;5.10;0.50;;;7.10;99.90;;;;;;5051775;28;20029;-78
2021/04/23 07:30:34;;;;;;;7.88;0.70;;;7.20;99.90;;;;;;5055455;28;20040;-79
2021/04/23 07:33:00;;;;;;;2.70;0.40;;;7.10;99.90;;;;;;5050767;28;20032;-78
2021/04/23 07:35:27;;;;;;;5.80;0.60;;;7.20;99.90;;;;;;5052413;28;20052;-78
2021/04/23 07:37:55;;;;;;;3.22;0.60;;;7.20;99.90;;;;;;5055227;28;20044;-78
2021/04/23 07:40:21;;;;;;;9.57;0.55;;;7.40;99.90;;;;;;5050657;28;20102;-79
2021/04/23 07:42:47;;;;;;;4.22;0.52;;;7.90;99.90;;;;;;5050507;28;20026;-79
2021/04/23 07:45:14;;;;;;;5.88;0.40;;;8.10;99.90;;;;;;5044973;28;20393;-81
2021/04/23 07:47:40;;;;;;;11.52;1.05;;;7.80;99.90;;;;;;5044843;28;20038;-80
2021/04/23 07:50:07;;;;;;;6.95;0.70;;;8.00;99.90;;;;;;5043851;28;20044;-81
2021/04/23 07:52:33;;;;;;;5.78;0.40;;;8.10;99.90;;;;;;5046063;28;20033;-80
2021/04/23 07:55:01;;;;;;;6.15;0.43;;;8.00;99.90;;;;;;5044894;28;20084;-80
2021/04/23 07:57:27;;;;;;;3.35;0.77;;;8.30;99.90;;;;;;5044842;28;20039;-79
2021/04/23 07:59:53;;;;;;;5.13;0.40;;;8.80;99.90;;;;;;5044700;28;20120;-80
2021/04/23 08:02:19;;;;;;;2.28;0.50;;;8.70;99.90;;;;;;5046073;28;20486;-79
2021/04/23 08:04:44;;;;;;;6.95;0.70;;;8.80;99.90;;;;;;5044789;28;20040;-80
2021/04/23 08:07:11;;;;;;;5.13;0.70;;;8.40;99.90;;;;;;5044514;28;20060;-79
2021/04/23 08:09:37;;;;;;;9.15;1.00;;;8.60;99.90;;;;;;5044856;28;20033;-80
2021/04/23 08:12:04;;;;;;;5.15;0.50;;;8.80;99.90;;;;;;5044881;28;20044;-79
2021/04/23 08:14:30;;;;;;;3.50;0.32;;;8.50;99.90;;;;;;5044709;28;20021;-79
2021/04/23 08:16:55;;;;;;;9.88;0.60;;;8.30;99.90;;;;;;5044695;28;20079;-79
2021/04/23 08:19:21;;;;;;;8.20;0.60;;;8.60;99.90;;;;;;5044394;28;20060;-80
2021/04/23 08:21:47;;;;;;;3.45;0.47;;;8.70;99.90;;;;;;5044405;28;20037;-79
2021/04/23 08:24:13;;;;;;;5.47;0.43;;;8.50;99.90;;;;;;5044451;28;20033;-80
2021/04/23 08:26:42;;;;;;;4.55;0.88;;;8.60;99.90;;;;;;5045715;28;20120;-80
2021/04/23 08:29:08;;;;;;;7.28;0.52;;;8.40;99.90;;;;;;5044352;28;20044;-79
2021/04/23 08:31:33;;;;;;;4.00;0.40;;;8.40;99.90;;;;;;5027837;28;20034;-79
2021/04/23 08:33:59;;;;;;;7.38;0.50;;;8.90;99.90;;;;;;5045698;28;20029;-79
2021/04/23 08:36:25;;;;;;;10.73;0.45;;;8.80;99.90;;;;;;5044108;28;20056;-79
2021/04/23 08:38:50;;;;;;;6.97;0.65;;;8.70;99.90;;;;;;5044206;28;20053;-79
2021/04/23 08:41:16;;;;;;;4.95;0.45;;;8.30;99.90;;;;;;5043896;28;20049;-79
2021/04/23 08:43:41;;;;;;;4.47;0.52;;;8.40;99.90;;;;;;5044304;28;20026;-79
2021/04/23 08:46:07;;;;;;;5.20;1.25;;;8.30;99.90;;;;;;5044223;28;20037;-79
2021/04/23 08:48:33;;;;;;;5.32;0.45;;;8.20;99.90;;;;;;5045308;28;20108;-79
2021/04/23 08:51:00;;;;;;;4.82;0.50;;;8.30;99.90;;;;;;5043883;28;20097;-79
2021/04/23 08:53:27;;;;;;;5.10;0.82;;;8.10;99.90;;;;;;5044115;28;20037;-79
2021/04/23 08:55:56;;;;;;;9.27;0.40;;;8.10;99.90;;;;;;5045173;28;20032;-79
2021/04/23 08:58:22;;;;;;;4.40;0.50;;;8.10;99.90;;;;;;5044094;28;20069;-79
2021/04/23 09:00:48;;;;;;;5.00;0.55;;;8.00;99.90;;;;;;5060574;28;20044;-79
2021/04/23 09:03:18;;;;;;;2.28;0.30;;;8.20;99.90;;;;;;5043958;28;20037;-79
2021/04/23 09:06:03;;;;;;;;;;;8.60;99.90;;;;;;5060974;28;20044;-79
2021/04/23 09:08:29;;;;;;;1.05;0.20;;;9.10;99.90;;;;;;5043632;28;19960;-79
2021/04/23 09:10:54;;;;;;;3.50;0.20;;;9.90;99.90;;;;;;5060270;28;20036;-79
2021/04/23 09:13:20;;;;;;;2.88;0.28;;;10.10;99.90;;;;;;5043760;28;20100;-79
2021/04/23 09:15:46;;;;;;;3.78;0.20;;;10.00;99.90;;;;;;5043722;28;20021;-79
2021/04/23 09:18:17;;;;;;;4.45;0.40;;;10.10;99.90;;;;;;5044893;28;20148;-79
2021/04/23 09:20:48;;;;;;;4.80;0.70;;;10.30;99.90;;;;;;5043650;28;20073;-79
2021/04/23 09:23:16;;;;;;;2.22;0.30;;;10.60;99.90;;;;;;5044745;28;20508;-79
2021/04/23 09:25:57;;;;;;;5.05;0.32;;;11.30;99.90;;;;;;5060223;28;20041;-79
2021/04/23 09:28:36;;;;;;;5.07;0.30;;;10.60;99.90;;;;;;5043501;28;20021;-79
2021/04/23 09:31:26;;;;;;;4.60;0.32;;;11.00;99.90;;;;;;5060086;28;20087;-79
2021/04/23 09:33:54;;;;;;;6.65;0.40;;;10.90;99.90;;;;;;5059960;28;20385;-79
2021/04/23 09:36:25;;;;;;;4.13;0.65;;;10.40;99.90;;;;;;5043107;28;20049;-79
2021/04/23 09:39:14;;;;;;;4.45;0.40;;;10.40;99.90;;;;;;5043322;28;20037;-80
2021/04/23 09:42:01;;;;;;;8.05;1.20;;;10.20;99.90;;;;;;5043309;28;20037;-79
2021/04/23 09:44:28;;;;;;;6.63;1.42;;;10.40;99.90;;;;;;5023750;28;20101;-79
2021/04/23 09:47:01;;;;;;;5.45;0.50;;;10.60;99.90;;;;;;5023391;28;20021;-79
2021/04/23 09:49:28;;;;;;;1.65;0.32;;;10.10;99.90;;;;;;5023312;28;20042;-79
2021/04/23 09:51:54;;;;;;;3.05;0.40;;;9.90;99.90;;;;;;5023364;28;20045;-79
2021/04/23 09:54:22;;;;;;;4.18;0.40;;;10.30;99.90;;;;;;5040111;28;20030;-79
2021/04/23 09:56:48;;;;;;;3.67;0.40;;;10.30;99.90;;;;;;5039792;28;20125;-79
2021/04/23 09:59:15;;;;;;;5.05;0.40;;;10.30;99.90;;;;;;5040052;28;20018;-79
2021/04/23 10:02:05;;;;;;;3.85;0.55;;;10.50;99.90;;;;;;5040059;28;20041;-79
2021/04/23 10:04:34;;;;;;;12.07;2.20;;;10.80;99.90;;;;;;5043916;28;20101;-79
2021/04/23 10:07:10;;;;;;;4.07;0.50;;;11.20;99.90;;;;;;5026831;28;20046;-78
2021/04/23 10:09:42;;;;;;;3.53;0.30;;;12.00;99.90;;;;;;5028341;28;20113;-79
2021/04/23 10:12:08;;;;;;;5.72;0.40;;;12.40;99.90;;;;;;5043625;28;20038;-79
2021/04/23 10:14:33;;;;;;;3.40;0.40;;;12.50;99.90;;;;;;5027036;28;20022;-79
2021/04/23 10:16:59;;;;;;;4.50;0.40;;;12.50;99.90;;;;;;5043544;28;20503;-79
2021/04/23 10:19:26;;;;;;;8.20;0.40;;;11.90;99.90;;;;;;5043398;28;20085;-79
2021/04/23 10:21:53;;;;;;;3.78;0.50;;;10.50;99.90;;;;;;5043245;28;20113;-79
2021/04/23 10:24:21;;;;;;;6.25;0.55;;;11.30;99.90;;;;;;5043215;28;20389;-79
2021/04/23 10:26:49;;;;;;;4.97;0.50;;;12.30;99.90;;;;;;5028176;28;20068;-79
2021/04/23 10:29:16;;;;;;;2.97;0.60;;;12.40;99.90;;;;;;5027962;28;20129;-79
2021/04/23 10:31:42;;;;;;;2.58;0.55;;;12.80;99.90;;;;;;5043224;28;20045;-79
2021/04/23 10:34:09;;;;;;;3.58;0.65;;;12.90;99.90;;;;;;5049310;28;20140;-79
2021/04/23 10:36:37;;;;;;;4.10;0.65;;;12.70;99.90;;;;;;5042912;28;20520;-78
2021/04/23 10:39:03;;;;;;;5.03;0.50;;;12.60;99.90;;;;;;5059597;28;20064;-79
2021/04/23 10:41:36;;;;;;;3.65;0.40;;;11.70;99.90;;;;;;5059567;28;20501;-79
2021/04/23 10:44:03;;;;;;;4.72;0.63;;;12.30;99.90;;;;;;5045781;28;20029;-79
2021/04/23 10:46:29;;;;;;;3.78;0.32;;;12.80;99.90;;;;;;5063102;28;20037;-79
2021/04/23 10:49:07;;;;;;;3.92;0.30;;;13.30;99.90;;;;;;5046031;28;20056;-79
2021/04/23 10:51:33;;;;;;;5.75;0.40;;;12.90;99.90;;;;;;5046230;28;20044;-79
2021/04/23 10:54:14;;;;;;;4.15;0.40;;;12.30;99.90;;;;;;5046204;28;20029;-78
2021/04/23 10:56:52;;;;;;;2.72;0.40;;;12.70;99.90;;;;;;5046140;28;20036;-79
2021/04/23 10:59:20;;;;;;;3.17;0.50;;;12.30;99.90;;;;;;5045820;28;20029;-79
2021/04/23 11:01:48;;;;;;;2.03;0.35;;;12.70;99.90;;;;;;5047508;28;20056;-79
2021/04/23 11:04:16;;;;;;;1.20;0.20;;;13.20;99.90;;;;;;5062469;28;20025;-79
2021/04/23 11:06:54;;;;;;;5.13;0.60;;;13.20;99.90;;;;;;5045654;28;20056;-79
2021/04/23 11:09:23;;;;;;;5.53;0.47;;;12.80;99.90;;;;;;5045646;28;20053;-79
2021/04/23 11:12:07;;;;;;;3.25;0.45;;;12.80;99.90;;;;;;5045932;28;20117;-79
2021/04/23 11:14:35;;;;;;;4.10;0.70;;;12.70;99.90;;;;;;5027934;28;20037;-79
2021/04/23 11:17:16;;;;;;;8.50;0.70;;;12.60;99.90;;;;;;5029158;28;20030;-79
2021/04/23 11:19:43;;;;;;;2.33;0.40;;;12.60;99.90;;;;;;5028923;28;20105;-79
2021/04/23 11:22:13;;;;;;;4.05;0.40;;;13.10;99.90;;;;;;5028767;28;20516;-79
2021/04/23 11:24:39;;;;;;;4.40;0.53;;;12.60;99.90;;;;;;5045610;28;20032;-79
2021/04/23 11:27:07;;;;;;;6.00;0.50;;;12.40;99.90;;;;;;5029110;28;20485;-79
2021/04/23 11:29:42;;;;;;;6.78;0.77;;;12.80;99.90;;;;;;5045289;28;20033;-79
2021/04/23 11:32:11;;;;;;;6.45;0.68;;;12.60;99.90;;;;;;5046756;28;20033;-80
2021/04/23 11:34:42;;;;;;;6.03;0.60;;;12.70;99.90;;;;;;5045114;28;20053;-79
2021/04/23 11:37:16;;;;;;;6.90;0.60;;;13.10;99.90;;;;;;5045161;28;20092;-79
2021/04/23 11:39:47;;;;;;;3.25;0.40;;;12.30;99.90;;;;;;5045123;28;20049;-79
2021/04/23 11:49:34;;;;;;;4.22;0.70;;;13.50;99.90;;;;;;5046416;28;20552;-79
2021/04/23 11:52:03;;;;;;;4.28;0.47;;;14.20;99.90;;;;;;5044889;28;20037;-79
2021/04/23 11:54:31;;;;;;;5.45;0.50;;;14.40;99.90;;;;;;5045093;28;20025;-79
2021/04/23 11:56:59;;;;;;;4.43;0.50;;;14.30;99.90;;;;;;5045064;28;20040;-80
2021/04/23 11:59:24;;;;;;;4.47;0.45;;;14.60;99.90;;;;;;5046087;28;20108;-79
2021/04/23 12:01:50;;;;;;;1.73;0.30;;;14.60;99.90;;;;;;5044926;28;20068;-80
2021/04/23 12:04:39;;;;;;;3.13;0.40;;;14.10;99.90;;;;;;5044722;28;20033;-80
2021/04/23 12:07:05;;;;;;;2.55;0.40;;;13.70;99.90;;;;;;5044324;28;20053;-79
2021/04/23 12:09:31;;;;;;;3.88;0.40;;;13.40;99.90;;;;;;5044484;28;20383;-79
2021/04/23 12:12:12;;;;;;;2.80;0.40;;;13.80;99.90;;;;;;5044736;28;20034;-80
2021/04/23 12:14:43;;;;;;;3.08;0.50;;;14.60;99.90;;;;;;5046103;28;20109;-79
2021/04/23 12:17:08;;;;;;;3.05;0.40;;;15.20;99.90;;;;;;5044562;28;20055;-79
2021/04/23 12:19:34;;;;;;;4.20;0.52;;;15.70;99.90;;;;;;5044195;28;20053;-79
2021/04/23 12:22:00;;;;;;;5.65;0.82;;;15.10;98.20;;;;;;5027722;28;20069;-79
2021/04/23 12:24:26;;;;;;;3.25;0.50;;;13.90;99.90;;;;;;5044157;28;20035;-79
2021/04/23 12:26:51;;;;;;;4.38;0.50;;;13.90;99.90;;;;;;5044304;28;20037;-79
2021/04/23 12:29:24;;;;;;;2.83;0.60;;;13.20;99.90;;;;;;5044266;28;20063;-80
2021/04/23 12:31:50;;;;;;;3.08;0.52;;;13.00;99.90;;;;;;5045625;28;20097;-79
2021/04/23 12:34:16;;;;;;;2.58;0.38;;;13.10;99.90;;;;;;5027057;28;20055;-79
2021/04/23 12:36:47;;;;;;;4.40;0.50;;;13.50;99.90;;;;;;5043917;28;20033;-79
2021/04/23 12:39:19;;;;;;;4.13;0.47;;;13.50;99.90;;;;;;5041779;28;20044;-80
2021/04/23 12:41:57;;;;;;;2.58;0.40;;;14.00;99.90;;;;;;5043842;28;20037;-79
2021/04/23 12:44:25;;;;;;;4.55;0.35;;;14.20;99.90;;;;;;5024393;28;20389;-79
2021/04/23 12:46:55;;;;;;;4.72;0.50;;;15.40;99.00;;;;;;5040479;28;20128;-79
2021/04/23 12:49:26;;;;;;;3.13;0.50;;;15.00;99.40;;;;;;5024331;28;20044;-80
2021/04/23 12:51:55;;;;;;;1.95;0.40;;;14.80;99.90;;;;;;5025527;28;20036;-80
2021/04/23 12:54:31;;;;;;;5.95;0.55;;;14.90;99.90;;;;;;5040606;28;20040;-80
2021/04/23 12:56:59;;;;;;;6.00;0.50;;;14.40;99.70;;;;;;5023989;28;20034;-79
2021/04/23 12:59:46;;;;;;;3.15;0.77;;;14.80;99.90;;;;;;5040396;28;20053;-80
2021/04/23 13:02:20;;;;;;;3.92;0.45;;;14.90;99.10;;;;;;5025177;28;20069;-79
2021/04/23 13:04:46;;;;;;;5.70;0.50;;;14.00;99.80;;;;;;5024126;28;20026;-79
2021/04/23 13:07:17;;;;;;;4.82;0.70;;;14.00;99.70;;;;;;5041306;28;20067;-79
2021/04/23 13:09:48;;;;;;;2.90;0.43;;;13.70;99.90;;;;;;5028378;28;20025;-79
2021/04/23 13:12:30;;;;;;;2.28;0.60;;;13.50;99.90;;;;;;5061714;28;20043;-79